KFRR/FRR METAR and TAF weather

Enter ICAO airport designator
Station Type Date Time Source
KFRR METAR 2019/02/16 07:15 UTC NOAA

KFRR 160715Z AUTO 03006KT 10SM BKN070 OVC100 05/M08 A2985 RMK AO1


Station Type Date Time Source
KFRR Decoded METAR 2019/02/16 07:15 UTC NOAA

Station name not available
Feb 16, 2019 - 02:15 AM EST / 2019.02.16 0715 UTC
Wind: from the NNE (030 degrees) at 7 MPH (6 KT):0
Visibility: 10 mile(s):0
Sky conditions: overcast
Temperature: 41 F (5 C)
Dew Point: 17 F (-8 C)
Relative Humidity: 38%
Pressure (altimeter): 29.85 in. Hg (1010 hPa)
ob: KFRR 160715Z AUTO 03006KT 10SM BKN070 OVC100 05/M08 A2985 RMK AO1
cycle: 7

Station Type Date Time Source
KFRR TAF UTC NOAA

Error!


Example: see airport list